createdAt,value
2022-09-04T00:05:13.172Z,15.34
2022-09-04T00:10:31.705Z,15.26
2022-09-04T00:15:39.659Z,15.28
2022-09-04T00:20:56.912Z,15.17
2022-09-04T00:26:11.514Z,15.05
2022-09-04T00:31:22.365Z,15.14
2022-09-04T00:36:28.073Z,15.22
2022-09-04T00:41:42.314Z,15.48
2022-09-04T00:47:05.289Z,15.36
2022-09-04T00:52:36.999Z,15.30
2022-09-04T00:58:03.594Z,15.27
2022-09-04T01:03:20.674Z,15.17
2022-09-04T01:08:40.771Z,15.38
2022-09-04T01:14:06.265Z,15.47
2022-09-04T01:19:32.250Z,15.13
2022-09-04T01:25:05.891Z,15.32
2022-09-04T01:30:12.321Z,15.23
2022-09-04T01:35:20.128Z,15.50
2022-09-04T01:40:35.502Z,15.39
2022-09-04T01:46:05.154Z,15.10
2022-09-04T01:51:18.813Z,15.04
2022-09-04T01:56:30.296Z,14.99
2022-09-04T02:02:06.803Z,15.17
2022-09-04T02:07:20.656Z,15.17
2022-09-04T02:13:30.016Z,15.21
2022-09-04T02:18:45.609Z,15.15
2022-09-04T02:23:57.974Z,14.96
2022-09-04T02:29:28.730Z,15.22
2022-09-04T02:34:48.068Z,15.26
2022-09-04T02:40:12.029Z,15.35
2022-09-04T02:45:23.081Z,15.27
2022-09-04T02:51:02.292Z,15.15
2022-09-04T02:56:16.090Z,14.96
2022-09-04T03:01:35.136Z,14.72
2022-09-04T03:06:59.602Z,14.99
2022-09-04T03:12:16.040Z,14.78
2022-09-04T03:17:33.184Z,14.81
2022-09-04T03:22:43.910Z,14.94
2022-09-04T03:27:46.479Z,15.15
2022-09-04T03:33:08.402Z,15.06
2022-09-04T03:38:23.156Z,15.10
2022-09-04T03:43:56.916Z,15.03
2022-09-04T03:49:11.961Z,15.02
2022-09-04T03:54:38.356Z,15.06
2022-09-04T04:00:09.720Z,14.91
2022-09-04T04:05:40.575Z,14.90
2022-09-04T04:11:05.380Z,14.45
2022-09-04T04:16:55.787Z,14.45
2022-09-04T04:22:24.186Z,14.52
2022-09-04T04:27:46.028Z,14.37
2022-09-04T04:33:02.459Z,14.05
2022-09-04T04:38:19.426Z,14.13
2022-09-04T04:43:54.945Z,14.28
2022-09-04T04:49:04.497Z,14.19
2022-09-04T04:54:28.067Z,14.10
2022-09-04T04:59:51.944Z,14.01
2022-09-04T05:05:05.182Z,13.94
2022-09-04T05:10:15.499Z,14.07
2022-09-04T05:15:29.286Z,14.13
2022-09-04T05:20:48.114Z,14.28
2022-09-04T05:26:00.444Z,14.15
2022-09-04T05:31:09.539Z,14.34
2022-09-04T05:36:32.477Z,14.33
2022-09-04T05:41:50.879Z,14.47
2022-09-04T05:47:17.362Z,14.53
2022-09-04T05:52:29.584Z,15.63
2022-09-04T05:58:38.456Z,15.96
2022-09-04T06:03:52.769Z,17.29
2022-09-04T06:08:54.367Z,18.54
2022-09-04T06:14:10.022Z,18.68
2022-09-04T06:19:36.542Z,19.10
2022-09-04T06:25:33.295Z,18.47
2022-09-04T06:31:09.983Z,19.25
2022-09-04T06:36:21.770Z,20.33
2022-09-04T06:41:44.083Z,21.22
2022-09-04T06:47:02.874Z,20.16
2022-09-04T06:52:34.141Z,21.33
2022-09-04T06:58:13.972Z,22.05
2022-09-04T07:03:34.163Z,19.96
2022-09-04T07:09:08.564Z,19.78
2022-09-04T07:14:35.490Z,20.06
2022-09-04T07:19:46.130Z,20.41
2022-09-04T07:25:08.639Z,23.66
2022-09-04T07:30:13.620Z,24.58
2022-09-04T07:35:18.018Z,23.30
2022-09-04T07:40:27.978Z,24.13
2022-09-04T07:45:47.448Z,23.15
2022-09-04T07:51:10.811Z,21.16
2022-09-04T07:56:21.216Z,21.91
2022-09-04T08:01:42.614Z,24.32
2022-09-04T08:07:02.784Z,24.40
2022-09-04T08:12:36.903Z,23.24
2022-09-04T08:17:57.860Z,25.58
2022-09-04T08:23:04.279Z,27.08
2022-09-04T08:28:42.988Z,25.26
2022-09-04T08:33:57.610Z,24.49
2022-09-04T08:39:22.262Z,23.15
2022-09-04T08:44:38.872Z,23.57
2022-09-04T08:50:01.873Z,26.05
2022-09-04T08:55:24.511Z,25.53
2022-09-04T09:00:42.688Z,30.41
2022-09-04T09:05:47.335Z,29.41
2022-09-04T09:10:48.940Z,29.54
2022-09-04T09:16:22.429Z,30.86
2022-09-04T09:21:49.467Z,33.65
2022-09-04T09:27:08.631Z,34.30
2022-09-04T09:33:05.747Z,32.82
2022-09-04T09:38:52.053Z,34.13
2022-09-04T09:44:27.799Z,33.78
2022-09-04T09:49:47.981Z,32.12
2022-09-04T09:55:03.415Z,33.22
2022-09-04T10:00:07.357Z,33.23
2022-09-04T10:05:48.994Z,34.23
2022-09-04T10:11:23.766Z,32.35
2022-09-04T10:16:33.311Z,35.95
2022-09-04T10:22:07.821Z,33.81
2022-09-04T10:27:21.835Z,36.46
2022-09-04T10:32:47.409Z,30.46
2022-09-04T10:38:27.505Z,32.66
2022-09-04T10:44:16.549Z,31.25
2022-09-04T10:49:50.071Z,34.03
2022-09-04T10:55:06.864Z,33.04
2022-09-04T11:00:22.940Z,31.85
2022-09-04T11:05:37.911Z,28.35
2022-09-04T11:10:54.312Z,29.79
2022-09-04T11:16:20.802Z,28.43
2022-09-04T11:22:00.078Z,27.94
2022-09-04T11:27:31.282Z,27.89
2022-09-04T11:32:52.803Z,27.41
2022-09-04T11:38:06.606Z,27.39
2022-09-04T11:43:30.456Z,28.45
2022-09-04T11:48:51.200Z,29.01
2022-09-04T11:54:08.353Z,29.30
2022-09-04T11:59:33.021Z,29.55
2022-09-04T12:05:01.202Z,28.62
2022-09-04T12:10:28.480Z,28.97
2022-09-04T12:15:45.155Z,29.09
2022-09-04T12:21:12.598Z,29.43
2022-09-04T12:26:18.036Z,30.62
2022-09-04T12:31:38.932Z,30.04
2022-09-04T12:36:41.256Z,33.50
2022-09-04T12:41:54.967Z,31.34
2022-09-04T12:47:02.374Z,32.45
2022-09-04T12:52:23.498Z,31.16
2022-09-04T12:57:48.395Z,32.22
2022-09-04T13:03:13.119Z,30.18
2022-09-04T13:08:53.422Z,28.55
2022-09-04T13:14:42.824Z,28.49
2022-09-04T13:19:55.756Z,31.30
2022-09-04T13:25:11.990Z,30.13
2022-09-04T13:30:25.525Z,29.34
2022-09-04T13:35:41.489Z,28.44
2022-09-04T13:41:00.242Z,29.85
2022-09-04T13:46:08.064Z,31.04
2022-09-04T13:51:17.739Z,28.21
2022-09-04T13:56:28.431Z,28.50
2022-09-04T14:01:33.319Z,28.79
2022-09-04T14:06:37.027Z,27.59
2022-09-04T14:12:00.963Z,27.31
2022-09-04T14:17:07.237Z,26.88
2022-09-04T14:22:33.811Z,26.19
2022-09-04T14:27:42.541Z,26.47
2022-09-04T14:32:58.061Z,26.10
2022-09-04T14:38:21.726Z,26.52
2022-09-04T14:44:03.919Z,26.70
2022-09-04T14:49:10.111Z,26.70
2022-09-04T14:54:36.361Z,26.43
2022-09-04T14:59:44.309Z,26.78
2022-09-04T15:04:51.790Z,26.73
2022-09-04T15:09:54.797Z,26.37
2022-09-04T15:15:15.016Z,25.89
2022-09-04T15:20:26.228Z,26.11
2022-09-04T15:25:59.273Z,26.04
2022-09-04T15:31:28.562Z,26.05
2022-09-04T15:36:31.387Z,25.84
2022-09-04T15:41:34.195Z,25.78
2022-09-04T15:46:38.873Z,25.79
2022-09-04T15:51:52.104Z,25.28
2022-09-04T15:56:53.886Z,25.76
2022-09-04T16:01:55.560Z,25.57
2022-09-04T16:07:19.620Z,25.06
2022-09-04T16:12:30.781Z,24.59
2022-09-04T16:17:40.227Z,24.54
2022-09-04T16:23:00.705Z,24.56
2022-09-04T16:28:15.469Z,24.43
2022-09-04T16:33:30.687Z,24.41
2022-09-04T16:38:47.467Z,24.25
2022-09-04T16:44:14.670Z,24.21
2022-09-04T16:49:47.247Z,24.23
2022-09-04T16:54:55.319Z,23.91
2022-09-04T17:00:08.030Z,23.79
2022-09-04T17:05:28.158Z,23.69
2022-09-04T17:10:53.933Z,23.46
2022-09-04T17:16:04.988Z,23.44
2022-09-04T17:23:57.682Z,23.28
2022-09-04T17:36:21.957Z,22.93
2022-09-04T17:40:54.605Z,22.64
2022-09-04T17:44:10.481Z,22.23
2022-09-04T17:49:17.719Z,22.17
2022-09-04T17:54:20.682Z,21.79
2022-09-04T17:59:29.406Z,21.53
2022-09-04T18:04:40.121Z,21.32
2022-09-04T18:10:01.250Z,21.11
2022-09-04T18:15:34.294Z,20.91
2022-09-04T18:20:51.599Z,20.64
2022-09-04T18:26:09.878Z,20.61
2022-09-04T18:37:11.981Z,20.76
2022-09-04T18:37:24.927Z,20.54
2022-09-04T18:50:23.816Z,20.47
2022-09-04T18:50:29.198Z,20.28
2022-09-04T18:53:20.944Z,19.95
2022-09-04T18:58:41.778Z,19.75
2022-09-04T19:03:56.036Z,19.61
2022-09-04T19:09:06.788Z,19.32
2022-09-04T19:14:15.513Z,19.23
2022-09-04T19:19:38.037Z,19.28
2022-09-04T19:25:18.708Z,19.24
2022-09-04T19:30:23.851Z,18.94
2022-09-04T19:36:05.841Z,18.76
2022-09-04T19:46:00.640Z,18.60
2022-09-04T19:46:58.496Z,18.66
2022-09-04T19:53:24.398Z,18.62
2022-09-04T19:57:33.970Z,18.34
2022-09-04T20:02:52.655Z,18.15
2022-09-04T20:07:58.490Z,18.12
2022-09-04T20:13:18.502Z,18.17
2022-09-04T20:18:28.699Z,17.95
2022-09-04T20:23:51.098Z,17.90
2022-09-04T20:29:18.223Z,17.69
2022-09-04T20:34:48.541Z,17.48
2022-09-04T20:39:59.441Z,17.43
2022-09-04T20:48:05.028Z,17.54
2022-09-04T20:52:56.431Z,17.37
2022-09-04T20:57:50.964Z,17.25
2022-09-04T21:03:21.878Z,17.09
2022-09-04T21:08:15.523Z,17.07
2022-09-04T21:13:45.265Z,16.95
2022-09-04T21:19:27.565Z,16.77
2022-09-04T21:24:50.362Z,16.43
2022-09-04T21:30:14.712Z,16.61
2022-09-04T21:35:25.133Z,16.49
2022-09-04T21:40:52.771Z,16.53
2022-09-04T21:46:33.102Z,16.54
2022-09-04T21:51:52.987Z,16.31
2022-09-04T22:02:26.010Z,16.14
2022-09-04T22:03:02.010Z,16.04
2022-09-04T22:13:24.717Z,16.07
2022-09-04T22:13:59.212Z,16.01
2022-09-04T22:19:16.833Z,16.01
2022-09-04T22:24:50.906Z,15.98
2022-09-04T22:30:03.858Z,15.52
2022-09-04T22:35:42.431Z,15.61
2022-09-04T22:41:25.516Z,15.85
2022-09-04T22:46:33.042Z,15.52
2022-09-04T22:51:50.404Z,15.32
2022-09-04T22:57:09.200Z,15.16
2022-09-04T23:02:55.447Z,15.30
2022-09-04T23:13:46.304Z,15.21
2022-09-04T23:13:53.899Z,15.21
2022-09-04T23:26:31.252Z,15.23
2022-09-04T23:26:46.033Z,15.15
2022-09-04T23:31:09.233Z,15.06
2022-09-04T23:36:37.629Z,15.06
2022-09-04T23:41:58.975Z,14.89
2022-09-04T23:47:48.371Z,14.77
2022-09-04T23:53:22.204Z,14.67
2022-09-04T23:58:54.583Z,14.84
